Terminal Aerodrome Forecast
Issued by NWS Goodland, KS

Home | Current Version | Previous Version | Text Only | Print | Product List | Glossary On
Versions: 1 2 3 4 5 6 7 8 9 10 11 12 13
000
FTUS43 KGLD 171727
TAFGLD
TAF
KGLD 171727Z 1718/1818 20010KT P6SM FEW070 SCT250
     FM180000 19009KT P6SM VCTS SCT080CB BKN200
     FM180200 20008KT P6SM FEW080 SCT200
     FM181200 27006KT P6SM FEW090
     FM181400 35010KT P6SM FEW090=

USA.gov is the U.S. government's official web portal to all federal, state and local government web resources and services.